createdAt,value
2022-08-17T00:01:52.107Z,4.10
2022-08-17T00:04:21.682Z,2.92
2022-08-17T00:06:50.448Z,3.25
2022-08-17T00:09:19.478Z,3.05
2022-08-17T00:12:35.476Z,6.95
2022-08-17T00:14:38.082Z,4.90
2022-08-17T00:17:08.256Z,5.70
2022-08-17T00:19:36.414Z,4.18
2022-08-17T00:22:33.653Z,3.35
2022-08-17T00:24:54.764Z,3.85
2022-08-17T00:27:22.748Z,3.92
2022-08-17T00:29:50.586Z,4.95
2022-08-17T00:33:14.542Z,5.12
2022-08-17T00:35:10.710Z,5.20
2022-08-17T00:37:39.066Z,7.12
2022-08-17T00:40:08.468Z,5.57
2022-08-17T00:42:36.980Z,3.30
2022-08-17T00:45:06.055Z,3.28
2022-08-17T00:47:35.291Z,9.23
2022-08-17T00:50:03.558Z,4.25
2022-08-17T00:52:36.238Z,4.22
2022-08-17T00:55:07.160Z,5.20
2022-08-17T00:57:39.960Z,5.15
2022-08-17T01:00:12.578Z,5.00
2022-08-17T01:02:46.047Z,4.82
2022-08-17T01:05:20.696Z,2.50
2022-08-17T01:07:51.124Z,4.25
2022-08-17T01:10:59.577Z,3.95
2022-08-17T01:13:11.306Z,3.25
2022-08-17T01:15:48.680Z,3.35
2022-08-17T01:18:18.121Z,15.27
2022-08-17T01:20:49.713Z,3.17
2022-08-17T01:23:21.292Z,6.90
2022-08-17T01:25:51.209Z,6.12
2022-08-17T01:28:52.372Z,4.50
2022-08-17T01:31:09.489Z,3.58
2022-08-17T01:33:38.383Z,5.05
2022-08-17T01:36:08.056Z,3.75
2022-08-17T01:38:38.048Z,4.85
2022-08-17T01:41:09.501Z,4.65
2022-08-17T01:43:44.403Z,4.37
2022-08-17T01:46:16.941Z,3.72
2022-08-17T01:48:47.349Z,2.80
2022-08-17T01:51:16.605Z,6.75
2022-08-17T01:53:49.393Z,3.70
2022-08-17T01:56:22.808Z,4.43
2022-08-17T01:58:50.982Z,7.03
2022-08-17T02:01:24.766Z,4.55
2022-08-17T02:03:59.396Z,3.55
2022-08-17T02:06:43.982Z,5.45
2022-08-17T02:09:23.282Z,4.82
2022-08-17T02:11:53.322Z,4.30
2022-08-17T02:14:23.353Z,3.37
2022-08-17T02:16:51.334Z,3.83
2022-08-17T02:19:19.411Z,6.78
2022-08-17T02:21:50.233Z,6.12
2022-08-17T02:24:59.329Z,5.57
2022-08-17T02:27:10.766Z,8.18
2022-08-17T02:29:38.739Z,3.53
2022-08-17T02:32:07.028Z,4.72
2022-08-17T02:34:35.168Z,4.75
2022-08-17T02:37:03.034Z,5.15
2022-08-17T02:39:32.255Z,5.62
2022-08-17T02:42:04.790Z,5.45
2022-08-17T02:44:39.405Z,5.57
2022-08-17T02:47:09.621Z,6.37
2022-08-17T02:49:37.878Z,5.90
2022-08-17T02:52:07.611Z,4.55
2022-08-17T02:54:40.718Z,3.90
2022-08-17T02:57:10.289Z,4.50
2022-08-17T02:59:38.871Z,5.03
2022-08-17T03:02:08.186Z,6.95
2022-08-17T03:04:36.340Z,4.50
2022-08-17T03:07:05.654Z,4.43
2022-08-17T03:09:33.828Z,5.65
2022-08-17T03:12:07.059Z,6.87
2022-08-17T03:14:41.287Z,6.62
2022-08-17T03:17:10.965Z,4.03
2022-08-17T03:19:45.478Z,4.60
2022-08-17T03:22:36.438Z,4.87
2022-08-17T03:25:02.036Z,6.57
2022-08-17T03:27:31.400Z,8.25
2022-08-17T03:29:59.365Z,6.25
2022-08-17T03:32:27.589Z,8.50
2022-08-17T03:34:59.319Z,7.55
2022-08-17T03:37:28.017Z,5.80
2022-08-17T03:39:55.940Z,7.97
2022-08-17T03:42:32.448Z,7.82
2022-08-17T03:45:03.296Z,7.65
2022-08-17T03:48:01.351Z,4.95
2022-08-17T03:50:58.691Z,5.65
2022-08-17T03:53:43.476Z,4.32
2022-08-17T03:56:29.808Z,6.80
2022-08-17T03:58:57.737Z,6.05
2022-08-17T04:01:27.881Z,5.12
2022-08-17T04:03:56.465Z,4.97
2022-08-17T04:06:24.377Z,6.47
2022-08-17T04:08:52.176Z,7.32
2022-08-17T04:11:20.553Z,5.68
2022-08-17T04:13:48.400Z,6.75
2022-08-17T04:16:16.784Z,7.25
2022-08-17T04:18:46.317Z,4.97
2022-08-17T04:21:14.209Z,6.65
2022-08-17T04:23:42.058Z,9.27
2022-08-17T04:26:11.509Z,6.18
2022-08-17T04:28:59.814Z,6.40
2022-08-17T04:31:28.542Z,3.92
2022-08-17T04:33:57.806Z,6.68
2022-08-17T04:36:25.653Z,4.55
2022-08-17T04:38:53.785Z,6.97
2022-08-17T04:41:39.432Z,5.53
2022-08-17T04:44:11.731Z,8.02
2022-08-17T04:46:40.119Z,6.80
2022-08-17T04:49:10.830Z,4.95
2022-08-17T04:51:54.704Z,6.28
2022-08-17T04:54:28.082Z,6.62
2022-08-17T04:56:56.175Z,7.32
2022-08-17T04:59:24.236Z,6.03
2022-08-17T05:01:53.023Z,6.70
2022-08-17T05:04:34.901Z,5.18
2022-08-17T05:07:04.510Z,8.57
2022-08-17T05:09:33.449Z,4.95
2022-08-17T05:12:01.703Z,5.60
2022-08-17T05:14:32.942Z,5.97
2022-08-17T05:17:02.058Z,6.50
2022-08-17T05:19:38.815Z,7.37
2022-08-17T05:22:07.523Z,6.03
2022-08-17T05:24:42.543Z,7.72
2022-08-17T05:27:18.808Z,8.02
2022-08-17T05:29:47.196Z,7.12
2022-08-17T05:32:38.580Z,8.85
2022-08-17T05:35:06.396Z,7.30
2022-08-17T05:37:34.564Z,8.65
2022-08-17T05:40:02.531Z,7.82
2022-08-17T05:42:30.526Z,6.22
2022-08-17T05:44:58.901Z,9.23
2022-08-17T05:47:28.103Z,7.03
2022-08-17T05:49:56.278Z,7.82
2022-08-17T05:52:41.055Z,8.55
2022-08-17T05:55:19.356Z,8.32
2022-08-17T05:58:07.544Z,8.60
2022-08-17T06:00:44.118Z,8.50
2022-08-17T06:03:26.243Z,9.38
2022-08-17T06:06:18.168Z,11.00
2022-08-17T06:08:55.047Z,7.95
2022-08-17T06:11:29.804Z,7.45
2022-08-17T06:14:14.526Z,7.85
2022-08-17T06:16:51.809Z,7.90
2022-08-17T06:19:28.700Z,10.45
2022-08-17T06:21:57.176Z,7.68
2022-08-17T06:24:31.385Z,8.70
2022-08-17T06:27:08.196Z,8.70
2022-08-17T06:29:45.571Z,11.88
2022-08-17T06:32:14.496Z,8.43
2022-08-17T06:34:44.598Z,7.30
2022-08-17T06:37:31.073Z,16.85
2022-08-17T06:40:11.057Z,7.78
2022-08-17T06:43:06.180Z,8.80
2022-08-17T06:45:40.549Z,7.72
2022-08-17T06:48:16.022Z,8.48
2022-08-17T06:50:48.573Z,7.25
2022-08-17T06:53:23.209Z,8.75
2022-08-17T06:55:59.838Z,8.60
2022-08-17T06:58:31.860Z,8.93
2022-08-17T07:01:06.637Z,8.70
2022-08-17T07:03:39.549Z,8.20
2022-08-17T07:06:13.473Z,10.13
2022-08-17T07:08:56.200Z,9.88
2022-08-17T07:11:28.331Z,8.35
2022-08-17T07:14:04.314Z,9.52
2022-08-17T07:16:39.314Z,11.00
2022-08-17T07:19:08.064Z,14.23
2022-08-17T07:21:54.992Z,10.82
2022-08-17T07:24:37.258Z,10.85
2022-08-17T07:27:16.144Z,7.65
2022-08-17T07:29:49.428Z,8.70
2022-08-17T07:32:23.198Z,12.20
2022-08-17T07:35:21.124Z,10.00
2022-08-17T07:37:54.136Z,7.18
2022-08-17T07:40:27.984Z,14.07
2022-08-17T07:43:23.044Z,12.13
2022-08-17T07:46:26.824Z,10.52
2022-08-17T07:48:57.053Z,9.68
2022-08-17T07:51:28.582Z,10.50
2022-08-17T07:54:13.613Z,13.20
2022-08-17T07:56:46.535Z,8.98
2022-08-17T07:59:23.302Z,7.60
2022-08-17T08:02:05.871Z,7.80
2022-08-17T08:04:59.212Z,6.93
2022-08-17T08:07:28.871Z,10.40
2022-08-17T08:10:10.684Z,7.60
2022-08-17T08:12:41.023Z,7.12
2022-08-17T08:15:18.953Z,6.75
2022-08-17T08:17:51.733Z,7.35
2022-08-17T08:20:50.898Z,9.70
2022-08-17T08:23:27.440Z,7.57
2022-08-17T08:26:10.152Z,8.77
2022-08-17T08:28:51.140Z,7.47
2022-08-17T08:31:31.470Z,7.32
2022-08-17T08:34:44.441Z,6.40
2022-08-17T08:37:16.575Z,8.75
2022-08-17T08:39:55.423Z,5.12
2022-08-17T08:42:32.870Z,6.80
2022-08-17T08:45:11.928Z,6.55
2022-08-17T08:48:22.781Z,6.95
2022-08-17T08:51:05.195Z,7.10
2022-08-17T08:53:41.951Z,3.10
2022-08-17T08:56:17.362Z,5.35
2022-08-17T08:58:52.912Z,6.10
2022-08-17T09:01:30.480Z,5.45
2022-08-17T09:04:25.141Z,3.60
2022-08-17T09:07:04.370Z,7.07
2022-08-17T09:09:42.120Z,4.72
2022-08-17T09:12:16.806Z,4.78
2022-08-17T09:14:57.606Z,3.12
2022-08-17T09:17:36.519Z,6.70
2022-08-17T09:20:27.716Z,4.15
2022-08-17T09:23:03.373Z,4.97
2022-08-17T09:25:36.181Z,5.07
2022-08-17T09:28:07.835Z,3.60
2022-08-17T09:30:41.948Z,2.00
2022-08-17T09:33:13.760Z,4.18
2022-08-17T09:35:48.945Z,2.40
2022-08-17T09:38:24.143Z,2.22
2022-08-17T09:40:58.390Z,2.50
2022-08-17T09:43:34.982Z,2.10
2022-08-17T09:46:09.432Z,2.03
2022-08-17T09:48:42.820Z,2.20
2022-08-17T09:51:30.459Z,5.12
2022-08-17T09:54:09.683Z,1.85
2022-08-17T09:57:25.862Z,2.35
2022-08-17T10:00:01.167Z,1.90
2022-08-17T10:02:53.516Z,2.67
2022-08-17T10:05:25.348Z,2.67
2022-08-17T10:08:01.832Z,1.67
2022-08-17T10:10:35.015Z,4.75
2022-08-17T10:13:10.568Z,5.82
2022-08-17T10:15:52.177Z,1.95
2022-08-17T10:18:41.727Z,2.22
2022-08-17T10:21:30.910Z,2.05
2022-08-17T10:24:24.839Z,2.00
2022-08-17T10:26:57.483Z,6.72
2022-08-17T10:29:44.145Z,2.25
2022-08-17T10:32:27.250Z,2.12
2022-08-17T10:35:25.914Z,6.32
2022-08-17T10:38:19.583Z,1.92
2022-08-17T10:40:58.591Z,4.85
2022-08-17T10:43:57.902Z,6.43
2022-08-17T10:46:56.256Z,2.08
2022-08-17T10:49:29.358Z,1.73
2022-08-17T10:51:59.929Z,3.50
2022-08-17T10:54:41.772Z,2.53
2022-08-17T11:00:03.734Z,1.90
2022-08-17T11:02:41.315Z,5.57
2022-08-17T11:05:44.229Z,2.40
2022-08-17T11:08:50.359Z,3.85
2022-08-17T11:11:52.526Z,1.83
2022-08-17T11:14:33.358Z,4.20
2022-08-17T11:17:17.388Z,3.47
2022-08-17T11:20:29.908Z,3.65
2022-08-17T11:23:25.490Z,2.92
2022-08-17T11:25:56.424Z,4.70
2022-08-17T11:28:28.908Z,4.78
2022-08-17T11:31:00.254Z,3.25
2022-08-17T11:34:03.434Z,3.60
2022-08-17T11:36:49.356Z,1.98
2022-08-17T11:39:31.654Z,6.43
2022-08-17T11:42:06.537Z,2.08
2022-08-17T11:44:50.488Z,1.70
2022-08-17T11:47:42.648Z,3.50
2022-08-17T11:51:15.724Z,2.17
2022-08-17T11:54:31.260Z,3.62
2022-08-17T11:56:52.785Z,3.37
2022-08-17T11:59:59.424Z,2.50
2022-08-17T12:02:38.831Z,2.37
2022-08-17T12:05:33.090Z,2.28
2022-08-17T12:08:15.157Z,5.60
2022-08-17T12:10:59.071Z,1.87
2022-08-17T12:13:33.977Z,1.92
2022-08-17T12:16:09.902Z,2.22
2022-08-17T12:18:41.778Z,5.40
2022-08-17T12:21:22.878Z,4.15
2022-08-17T12:23:58.876Z,2.05
2022-08-17T12:26:31.382Z,1.62
2022-08-17T12:29:02.138Z,2.80
2022-08-17T12:31:35.988Z,4.28
2022-08-17T12:34:05.183Z,2.67
2022-08-17T12:36:34.576Z,2.37
2022-08-17T12:39:14.114Z,2.25
2022-08-17T12:41:47.354Z,1.87
2022-08-17T12:44:17.700Z,2.00
2022-08-17T12:46:49.750Z,4.32
2022-08-17T12:49:29.884Z,1.80
2022-08-17T12:52:08.014Z,2.05
2022-08-17T12:54:46.688Z,2.00
2022-08-17T12:57:17.844Z,3.37
2022-08-17T12:59:50.019Z,2.20
2022-08-17T13:02:28.301Z,1.73
2022-08-17T13:04:58.057Z,5.70
2022-08-17T13:07:28.356Z,3.78
2022-08-17T13:09:57.738Z,4.43
2022-08-17T13:12:31.771Z,3.08
2022-08-17T13:15:00.268Z,2.72
2022-08-17T13:17:31.710Z,3.28
2022-08-17T13:20:00.325Z,2.22
2022-08-17T13:22:32.392Z,1.98
2022-08-17T13:25:07.016Z,3.60
2022-08-17T13:27:35.158Z,1.90
2022-08-17T13:30:08.156Z,1.92
2022-08-17T13:32:42.985Z,1.40
2022-08-17T13:35:40.041Z,2.42
2022-08-17T13:38:11.777Z,1.95
2022-08-17T13:40:45.100Z,1.90
2022-08-17T13:43:13.280Z,2.95
2022-08-17T13:45:50.883Z,1.50
2022-08-17T13:48:30.224Z,1.35
2022-08-17T13:51:16.187Z,1.40
2022-08-17T13:54:00.255Z,2.40
2022-08-17T13:56:39.923Z,3.17
2022-08-17T13:59:12.281Z,4.93
2022-08-17T14:01:43.498Z,2.85
2022-08-17T14:04:14.227Z,4.85
2022-08-17T14:06:53.033Z,5.47
2022-08-17T14:09:25.013Z,1.60
2022-08-17T14:11:55.757Z,1.75
2022-08-17T14:14:24.743Z,1.67
2022-08-17T14:16:53.566Z,1.45
2022-08-17T14:19:22.081Z,5.15
2022-08-17T14:21:50.943Z,1.92
2022-08-17T14:24:24.533Z,1.50
2022-08-17T14:26:54.058Z,2.65
2022-08-17T14:29:23.256Z,1.87
2022-08-17T14:31:54.460Z,2.20
2022-08-17T14:34:23.242Z,3.42
2022-08-17T14:36:51.510Z,2.83
2022-08-17T14:39:19.942Z,1.92
2022-08-17T14:41:48.521Z,1.85
2022-08-17T14:44:17.940Z,3.03
2022-08-17T14:46:46.261Z,1.87
2022-08-17T14:49:15.581Z,1.80
2022-08-17T14:51:44.557Z,2.05
2022-08-17T14:54:32.965Z,1.40
2022-08-17T14:57:22.319Z,3.65
2022-08-17T14:59:53.376Z,1.60
2022-08-17T15:02:29.703Z,1.58
2022-08-17T15:05:02.809Z,3.85
2022-08-17T15:07:31.500Z,2.65
2022-08-17T15:10:01.523Z,2.20
2022-08-17T15:12:34.272Z,3.78
2022-08-17T15:15:06.252Z,1.70
2022-08-17T15:17:44.376Z,1.75
2022-08-17T15:20:15.927Z,1.60
2022-08-17T15:22:45.077Z,1.87
2022-08-17T15:25:14.450Z,2.15
2022-08-17T15:27:42.892Z,3.35
2022-08-17T15:30:13.415Z,1.80
2022-08-17T15:32:50.727Z,1.67
2022-08-17T15:35:28.086Z,1.87
2022-08-17T15:37:58.198Z,2.28
2022-08-17T15:40:26.713Z,1.08
2022-08-17T15:42:54.765Z,1.55
2022-08-17T15:45:26.426Z,1.15
2022-08-17T15:47:54.972Z,1.90
2022-08-17T15:50:23.048Z,1.70
2022-08-17T15:52:56.858Z,2.35
2022-08-17T15:55:26.659Z,1.65
2022-08-17T15:57:55.220Z,1.60
2022-08-17T16:00:24.690Z,1.40
2022-08-17T16:03:14.042Z,5.90
2022-08-17T16:05:42.416Z,1.27
2022-08-17T16:08:11.199Z,1.55
2022-08-17T16:10:39.197Z,2.58
2022-08-17T16:13:17.635Z,2.20
2022-08-17T16:15:56.999Z,2.45
2022-08-17T16:18:30.831Z,3.35
2022-08-17T16:21:20.408Z,2.60
2022-08-17T16:23:49.212Z,1.70
2022-08-17T16:26:18.015Z,3.47
2022-08-17T16:28:46.562Z,2.90
2022-08-17T16:31:16.627Z,4.43
2022-08-17T16:34:15.674Z,4.87
2022-08-17T16:36:33.162Z,1.60
2022-08-17T16:39:01.418Z,1.62
2022-08-17T16:41:45.075Z,4.68
2022-08-17T16:44:15.293Z,1.42
2022-08-17T16:46:46.061Z,1.30
2022-08-17T16:49:35.796Z,1.85
2022-08-17T16:52:03.943Z,1.67
2022-08-17T16:54:32.576Z,1.92
2022-08-17T16:57:00.561Z,2.10
2022-08-17T16:59:39.399Z,1.50
2022-08-17T17:02:14.543Z,5.00
2022-08-17T17:04:50.160Z,2.20
2022-08-17T17:07:33.846Z,3.20
2022-08-17T17:10:08.081Z,3.58
2022-08-17T17:13:02.397Z,2.30
2022-08-17T17:15:32.485Z,1.40
2022-08-17T17:18:07.085Z,2.78
2022-08-17T17:20:43.701Z,1.20
2022-08-17T17:23:19.449Z,2.83
2022-08-17T17:25:59.628Z,1.02
2022-08-17T17:28:40.490Z,2.42
2022-08-17T17:31:14.766Z,2.90
2022-08-17T17:33:48.816Z,1.77
2022-08-17T17:36:25.970Z,1.35
2022-08-17T17:38:59.254Z,4.40
2022-08-17T17:41:33.853Z,1.20
2022-08-17T17:44:07.465Z,1.33
2022-08-17T17:46:39.452Z,1.45
2022-08-17T17:49:10.561Z,3.65
2022-08-17T17:52:03.601Z,2.10
2022-08-17T17:54:49.563Z,6.37
2022-08-17T17:57:28.668Z,4.80
2022-08-17T18:00:03.090Z,1.40
2022-08-17T18:03:01.892Z,1.80
2022-08-17T18:05:47.875Z,2.22
2022-08-17T18:08:33.877Z,2.78
2022-08-17T18:11:24.019Z,2.25
2022-08-17T18:14:04.624Z,3.97
2022-08-17T18:16:35.097Z,1.90
2022-08-17T18:19:03.111Z,1.62
2022-08-17T18:21:39.550Z,4.78
2022-08-17T18:24:10.547Z,4.95
2022-08-17T18:26:48.260Z,1.92
2022-08-17T18:29:34.350Z,1.48
2022-08-17T18:32:16.592Z,3.58
2022-08-17T18:34:48.004Z,2.62
2022-08-17T18:37:36.612Z,1.75
2022-08-17T18:40:37.498Z,1.92
2022-08-17T18:43:15.060Z,5.70
2022-08-17T18:45:46.965Z,2.15
2022-08-17T18:48:33.295Z,3.40
2022-08-17T18:51:05.737Z,4.68
2022-08-17T18:53:38.833Z,1.52
2022-08-17T18:56:28.108Z,1.67
2022-08-17T18:59:06.078Z,7.40
2022-08-17T19:01:53.910Z,4.82
2022-08-17T19:04:34.709Z,3.30
2022-08-17T19:07:23.186Z,1.52
2022-08-17T19:09:57.177Z,2.67
2022-08-17T19:12:31.926Z,1.73
2022-08-17T19:15:01.514Z,2.30
2022-08-17T19:17:37.187Z,1.83
2022-08-17T19:20:13.212Z,2.70
2022-08-17T19:22:53.954Z,2.33
2022-08-17T19:25:27.213Z,4.40
2022-08-17T19:28:00.600Z,3.50
2022-08-17T19:30:28.934Z,3.58
2022-08-17T19:32:58.341Z,2.83
2022-08-17T19:35:32.789Z,3.70
2022-08-17T19:38:13.175Z,3.37
2022-08-17T19:40:58.629Z,3.90
2022-08-17T19:43:38.455Z,5.18
2022-08-17T19:46:18.576Z,3.40
2022-08-17T19:48:57.591Z,2.17
2022-08-17T19:51:31.323Z,5.43
2022-08-17T19:54:06.772Z,4.53
2022-08-17T19:56:44.277Z,3.55
2022-08-17T19:59:17.134Z,1.75
2022-08-17T20:01:49.817Z,1.92
2022-08-17T20:04:31.860Z,2.47
2022-08-17T20:07:04.192Z,3.03
2022-08-17T20:09:37.503Z,2.47
2022-08-17T20:12:10.686Z,2.42
2022-08-17T20:14:53.441Z,5.68
2022-08-17T20:17:26.001Z,2.22
2022-08-17T20:20:04.787Z,4.70
2022-08-17T20:22:36.794Z,9.88
2022-08-17T20:25:29.881Z,3.35
2022-08-17T20:28:07.291Z,7.07
2022-08-17T20:30:38.648Z,5.07
2022-08-17T20:33:13.136Z,2.55
2022-08-17T20:36:00.447Z,5.35
2022-08-17T20:38:41.959Z,3.90
2022-08-17T20:41:13.115Z,2.80
2022-08-17T20:44:01.584Z,4.05
2022-08-17T20:46:52.643Z,2.60
2022-08-17T20:49:27.602Z,3.30
2022-08-17T20:52:02.587Z,3.45
2022-08-17T20:54:44.816Z,3.12
2022-08-17T20:57:42.990Z,5.25
2022-08-17T21:00:18.195Z,2.70
2022-08-17T21:02:49.575Z,3.45
2022-08-17T21:05:57.186Z,7.20
2022-08-17T21:08:31.715Z,3.78
2022-08-17T21:11:01.291Z,3.33
2022-08-17T21:14:06.629Z,4.85
2022-08-17T21:16:49.237Z,3.67
2022-08-17T21:19:31.259Z,3.95
2022-08-17T21:22:12.194Z,4.82
2022-08-17T21:24:51.738Z,3.33
2022-08-17T21:27:29.904Z,4.20
2022-08-17T21:30:23.189Z,3.08
2022-08-17T21:33:24.970Z,3.83
2022-08-17T21:36:15.963Z,4.60
2022-08-17T21:38:57.812Z,3.50
2022-08-17T21:41:29.506Z,2.92
2022-08-17T21:44:03.661Z,3.10
2022-08-17T21:46:36.808Z,4.78
2022-08-17T21:49:13.313Z,3.53
2022-08-17T21:51:45.332Z,3.78
2022-08-17T21:54:31.826Z,4.30
2022-08-17T21:57:02.460Z,4.00
2022-08-17T21:59:35.676Z,3.35
2022-08-17T22:02:07.144Z,5.68
2022-08-17T22:04:38.698Z,3.37
2022-08-17T22:07:10.623Z,3.97
2022-08-17T22:09:43.656Z,6.30
2022-08-17T22:12:16.088Z,8.15
2022-08-17T22:14:52.486Z,11.48
2022-08-17T22:17:25.042Z,7.70
2022-08-17T22:19:57.300Z,3.58
2022-08-17T22:22:57.734Z,3.85
2022-08-17T22:25:27.067Z,3.97
2022-08-17T22:28:01.088Z,4.95
2022-08-17T22:30:33.447Z,10.75
2022-08-17T22:33:22.134Z,13.02
2022-08-17T22:36:10.406Z,8.77
2022-08-17T22:38:39.300Z,4.12
2022-08-17T22:41:38.144Z,3.20
2022-08-17T22:44:17.181Z,9.65
2022-08-17T22:46:58.796Z,3.00
2022-08-17T22:49:31.254Z,4.35
2022-08-17T22:52:08.776Z,6.85
2022-08-17T22:54:54.951Z,4.12
2022-08-17T22:57:42.873Z,5.43
2022-08-17T23:00:30.081Z,3.25
2022-08-17T23:03:11.266Z,5.07
2022-08-17T23:05:40.849Z,6.07
2022-08-17T23:08:11.335Z,6.35
2022-08-17T23:10:39.533Z,4.47
2022-08-17T23:13:11.731Z,6.87
2022-08-17T23:15:41.072Z,3.87
2022-08-17T23:18:08.934Z,3.85
2022-08-17T23:20:38.251Z,4.00
2022-08-17T23:23:08.923Z,5.40
2022-08-17T23:25:38.312Z,7.10
2022-08-17T23:28:07.891Z,4.22
2022-08-17T23:30:38.148Z,4.12
2022-08-17T23:33:09.475Z,3.53
2022-08-17T23:35:39.770Z,6.20
2022-08-17T23:38:10.054Z,5.72
2022-08-17T23:40:39.979Z,4.72
2022-08-17T23:43:23.623Z,7.05
2022-08-17T23:45:54.975Z,3.62
2022-08-17T23:48:27.823Z,3.92
2022-08-17T23:51:10.577Z,6.20
2022-08-17T23:53:44.069Z,3.87
2022-08-17T23:56:13.661Z,5.03
2022-08-17T23:58:43.127Z,4.12
